Time;durP1;ratioP1;P1;durP2;ratioP2;P2;SDS_P1;SDS_P2;PMS_P1;PMS_P2;Temp;Humidity;BMP_temperature;BMP_pressure;BME280_temperature;BME280_humidity;BME280_pressure;Samples;Min_cycle;Max_cycle;Signal;HPM_P1;HPM_P2
2022/07/12 00:00:52;;;;;;;2.85;1.88;;;;;;;15.31;76.90;102326.72;5068622;28;20549;-72
2022/07/12 00:03:18;;;;;;;3.65;2.10;;;;;;;15.30;77.09;102318.63;5067433;28;20415;-72
2022/07/12 00:05:44;;;;;;;3.33;1.88;;;;;;;15.26;77.14;102322.53;5067484;28;20153;-72
2022/07/12 00:08:09;;;;;;;2.67;2.13;;;;;;;15.25;77.17;102318.06;5068721;28;20044;-72
2022/07/12 00:10:35;;;;;;;2.88;2.40;;;;;;;15.22;78.09;102312.75;5081015;28;20060;-69
2022/07/12 00:13:02;;;;;;;3.15;2.08;;;;;;;15.17;77.62;102315.81;5068942;28;20365;-71
2022/07/12 00:15:28;;;;;;;2.33;1.92;;;;;;;15.12;78.07;102317.13;5068104;28;20452;-72
2022/07/12 00:17:53;;;;;;;7.75;1.90;;;;;;;15.01;78.31;102307.78;5066793;28;20331;-72
2022/07/12 00:20:19;;;;;;;3.00;2.00;;;;;;;14.97;78.44;102308.97;5068797;28;20082;-72
2022/07/12 00:22:46;;;;;;;4.82;2.10;;;;;;;14.94;78.26;102302.81;5068819;28;20028;-72
2022/07/12 00:25:11;;;;;;;2.85;2.20;;;;;;;14.91;78.29;102305.75;5068423;28;20035;-70
2022/07/12 00:27:37;;;;;;;4.30;2.20;;;;;;;14.87;78.93;102305.06;5086778;28;20131;-72
2022/07/12 00:30:06;;;;;;;6.00;1.80;;;;;;;14.85;79.16;102311.66;5077797;28;20440;-72
2022/07/12 00:32:32;;;;;;;2.42;2.05;;;;;;;14.81;78.54;102310.97;5069563;28;20086;-69
2022/07/12 00:34:57;;;;;;;3.08;1.88;;;;;;;14.81;78.04;102308.22;5068399;28;20067;-72
2022/07/12 00:37:23;;;;;;;2.30;2.05;;;;;;;14.76;78.30;102303.03;5068616;28;20508;-72
2022/07/12 00:39:48;;;;;;;3.70;1.88;;;;;;;14.73;78.50;102305.97;5068099;28;20124;-72
2022/07/12 00:42:14;;;;;;;5.00;1.80;;;;;;;14.74;77.98;102298.66;5067058;28;20036;-72
2022/07/12 00:44:39;;;;;;;3.20;1.60;;;;;;;14.70;78.17;102300.72;5074101;28;20077;-72
2022/07/12 00:47:05;;;;;;;5.13;1.80;;;;;;;14.66;78.14;102307.38;5087062;28;20036;-69
2022/07/12 00:49:31;;;;;;;6.03;2.05;;;;;;;14.61;78.47;102298.59;5068837;28;20475;-72
2022/07/12 00:51:57;;;;;;;4.00;1.70;;;;;;;14.62;78.08;102303.09;5066241;28;20050;-71
2022/07/12 00:54:23;;;;;;;3.05;1.90;;;;;;;14.61;78.20;102294.97;5068423;28;20040;-72
2022/07/12 00:56:49;;;;;;;3.78;1.85;;;;;;;14.61;78.10;102303.19;5067780;28;20016;-72
2022/07/12 00:59:14;;;;;;;4.38;2.00;;;;;;;14.59;77.83;102303.28;5065717;28;20387;-72
2022/07/12 01:01:41;;;;;;;9.10;2.13;;;;;;;14.60;77.58;102304.19;5068275;28;20063;-72
2022/07/12 01:04:08;;;;;;;4.28;2.35;;;;;;;14.60;78.61;102302.31;5068397;28;20086;-72
2022/07/12 01:06:33;;;;;;;3.03;2.20;;;;;;;14.56;78.37;102300.75;5068494;28;20049;-72
2022/07/12 01:08:59;;;;;;;3.60;2.40;;;;;;;14.52;78.19;102300.09;5068033;28;20024;-72
2022/07/12 01:11:25;;;;;;;3.67;2.60;;;;;;;14.51;78.59;102313.88;5067520;28;20112;-72
2022/07/12 01:13:52;;;;;;;5.72;2.92;;;;;;;14.43;79.74;102308.88;5066423;28;20429;-71
2022/07/12 01:16:18;;;;;;;3.67;3.00;;;;;;;14.42;79.38;102306.25;5088109;28;20115;-72
2022/07/12 01:18:44;;;;;;;5.13;2.80;;;;;;;14.38;79.32;102305.56;5072003;28;20068;-72
2022/07/12 01:21:12;;;;;;;5.78;2.65;;;;;;;14.38;78.89;102310.16;5067755;28;20161;-72
2022/07/12 01:23:39;;;;;;;7.05;2.35;;;;;;;14.38;78.10;102318.38;5078176;28;20421;-72
2022/07/12 01:26:05;;;;;;;5.13;3.78;;;;;;;14.33;80.78;102326.88;5079328;28;20040;-69
2022/07/12 01:28:30;;;;;;;6.00;2.80;;;;;;;14.35;78.59;102319.44;5049483;28;20438;-72
2022/07/12 01:30:56;;;;;;;6.10;3.00;;;;;;;14.36;79.00;102326.69;5067091;28;20391;-72
2022/07/12 01:33:21;;;;;;;8.32;3.17;;;;;;;14.36;79.88;102315.75;5068175;28;20070;-71
2022/07/12 01:35:47;;;;;;;3.35;2.85;;;;;;;14.29;79.92;102323.44;5082960;28;20041;-71
2022/07/12 01:38:13;;;;;;;4.60;3.67;;;;;;;14.25;81.17;102327.34;5067138;28;20079;-71
2022/07/12 01:40:39;;;;;;;5.95;4.03;;;;;;;14.20;81.19;102323.16;5067175;28;20074;-71
2022/07/12 01:43:05;;;;;;;5.88;4.40;;;;;;;14.11;81.06;102315.53;5076847;28;20147;-69
2022/07/12 01:45:30;;;;;;;5.05;3.97;;;;;;;14.07;81.10;102320.31;5066966;28;20131;-72
2022/07/12 01:47:58;;;;;;;3.90;3.50;;;;;;;14.06;80.97;102320.44;5066468;28;20024;-71
2022/07/12 01:50:24;;;;;;;5.22;3.30;;;;;;;14.01;81.17;102326.19;5066815;28;20619;-72
2022/07/12 01:52:51;;;;;;;5.60;3.25;;;;;;;13.96;81.18;102317.41;5065938;28;20036;-71
2022/07/12 01:55:16;;;;;;;4.78;3.15;;;;;;;13.91;81.13;102322.28;5066627;28;20078;-72
2022/07/12 01:57:43;;;;;;;3.17;2.88;;;;;;;13.87;81.33;102326.19;5084922;28;20402;-72
2022/07/12 02:00:09;;;;;;;4.63;3.90;;;;;;;13.82;81.29;102322.88;5075117;28;20062;-71
2022/07/12 02:02:35;;;;;;;5.68;3.40;;;;;;;13.77;82.13;102312.22;5067867;28;20066;-70
2022/07/12 02:05:02;;;;;;;6.07;3.30;;;;;;;13.74;82.10;102318.72;5067440;28;20036;-71
2022/07/12 02:07:27;;;;;;;4.45;2.83;;;;;;;13.67;81.69;102306.44;5066626;28;20588;-71
2022/07/12 02:09:53;;;;;;;7.63;3.60;;;;;;;13.67;81.59;102317.38;5065756;28;20040;-71
2022/07/12 02:12:18;;;;;;;7.43;4.05;;;;;;;13.65;81.59;102312.97;5065730;28;20155;-71
2022/07/12 02:14:44;;;;;;;8.63;3.55;;;;;;;13.61;80.96;102312.25;5065975;28;20032;-71
2022/07/12 02:17:09;;;;;;;5.78;4.10;;;;;;;13.57;81.52;102313.44;5065069;28;20546;-72
2022/07/12 02:19:34;;;;;;;4.28;3.28;;;;;;;13.54;81.90;102302.69;5083409;28;20040;-69
2022/07/12 02:22:00;;;;;;;5.00;3.80;;;;;;;13.51;81.62;102298.28;5087545;28;20444;-72
2022/07/12 02:24:25;;;;;;;4.32;3.03;;;;;;;13.49;81.13;102304.84;5085631;28;20040;-72
2022/07/12 02:26:50;;;;;;;6.82;3.17;;;;;;;13.46;81.70;102307.75;5064843;28;20044;-72
2022/07/12 02:29:16;;;;;;;4.15;3.03;;;;;;;13.46;81.24;102315.94;5065523;28;20068;-72
2022/07/12 02:31:41;;;;;;;10.30;2.92;;;;;;;13.44;81.30;102309.69;5066782;28;20032;-71
2022/07/12 02:34:07;;;;;;;5.13;2.80;;;;;;;13.45;80.60;102316.94;5066425;28;20049;-71
2022/07/12 02:36:33;;;;;;;4.13;3.03;;;;;;;13.41;81.39;102305.28;5067301;28;20032;-71
2022/07/12 02:39:02;;;;;;;3.65;3.17;;;;;;;13.41;81.15;102310.75;5066561;28;20039;-72
2022/07/12 02:41:28;;;;;;;4.97;2.50;;;;;;;13.33;81.31;102307.59;5065401;28;20427;-71
2022/07/12 02:43:54;;;;;;;7.20;2.88;;;;;;;13.34;80.49;102305.78;5065079;28;20323;-72
2022/07/12 02:46:19;;;;;;;6.97;2.63;;;;;;;13.34;80.08;102317.59;5081844;28;20036;-71
2022/07/12 02:48:44;;;;;;;3.90;2.53;;;;;;;13.33;80.11;102309.47;5065601;28;20445;-72
2022/07/12 02:51:10;;;;;;;4.78;2.80;;;;;;;13.28;80.37;102316.06;5081039;28;20210;-72
2022/07/12 02:53:36;;;;;;;4.63;3.90;;;;;;;13.27;80.72;102317.06;5086516;28;20063;-71
2022/07/12 02:56:02;;;;;;;4.53;3.08;;;;;;;13.24;81.19;102311.81;5079463;28;20124;-72
2022/07/12 02:58:28;;;;;;;6.85;3.00;;;;;;;13.25;80.79;102319.03;5065678;28;20044;-71
2022/07/12 03:00:53;;;;;;;5.97;3.60;;;;;;;13.22;81.62;102310.13;5066125;28;20028;-72
2022/07/12 03:03:19;;;;;;;6.10;3.08;;;;;;;13.16;82.55;102315.94;5067234;28;20117;-72
2022/07/12 03:05:44;;;;;;;4.70;3.20;;;;;;;13.12;82.13;102317.94;5081680;28;20060;-71
2022/07/12 03:08:11;;;;;;;6.15;3.70;;;;;;;13.09;81.98;102312.66;5066253;28;20344;-71
2022/07/12 03:10:37;;;;;;;5.82;3.75;;;;;;;13.09;82.13;102318.13;5068594;28;20039;-72
2022/07/12 03:13:03;;;;;;;10.07;4.10;;;;;;;13.05;82.23;102310.19;5068085;28;20025;-71
2022/07/12 03:15:30;;;;;;;7.53;4.20;;;;;;;12.98;82.30;102312.44;5065224;28;20065;-71
2022/07/12 03:17:56;;;;;;;4.78;3.80;;;;;;;12.93;82.53;102314.56;5070757;28;20479;-71
2022/07/12 03:20:21;;;;;;;4.65;4.00;;;;;;;12.90;82.32;102307.41;5085487;28;20028;-71
2022/07/12 03:22:48;;;;;;;5.75;3.45;;;;;;;12.90;82.19;102310.13;5068924;28;20043;-71
2022/07/12 03:25:14;;;;;;;4.18;3.33;;;;;;;12.91;82.25;102306.44;5065297;28;20033;-70
2022/07/12 03:27:40;;;;;;;4.57;3.17;;;;;;;12.90;82.25;102312.00;5079887;28;20551;-71
2022/07/12 03:30:06;;;;;;;5.88;3.05;;;;;;;12.84;82.35;102310.50;5064755;28;20029;-71
2022/07/12 03:32:32;;;;;;;3.38;3.08;;;;;;;12.83;81.97;102314.22;5067048;28;20040;-72
2022/07/12 03:34:57;;;;;;;5.03;3.92;;;;;;;12.85;82.59;102306.81;5065507;28;20036;-71
2022/07/12 03:37:22;;;;;;;8.43;4.10;;;;;;;12.82;82.46;102304.25;5065884;28;20020;-71
2022/07/12 03:39:48;;;;;;;5.75;3.70;;;;;;;12.80;82.97;102308.03;5065703;28;20442;-71
2022/07/12 03:42:13;;;;;;;8.18;4.50;;;;;;;12.79;82.61;102306.28;5063818;28;20043;-71
2022/07/12 03:44:39;;;;;;;6.68;3.45;;;;;;;12.81;81.71;102312.53;5065244;28;20032;-71
2022/07/12 03:47:05;;;;;;;4.35;3.45;;;;;;;12.83;81.27;102318.81;5083776;28;20033;-70
2022/07/12 03:49:30;;;;;;;6.00;3.65;;;;;;;12.79;81.64;102307.16;5071362;28;20028;-72
2022/07/12 03:51:55;;;;;;;4.90;4.03;;;;;;;12.79;82.08;102312.63;5085928;28;20027;-71
2022/07/12 03:54:21;;;;;;;6.05;3.97;;;;;;;12.79;82.13;102309.91;5068243;28;20040;-72
2022/07/12 03:59:31;;;;;;;4.38;3.95;;;;;;;12.84;81.72;102312.38;5067795;28;20115;-71
2022/07/12 04:01:56;;;;;;;5.18;3.28;;;;;;;12.83;81.12;102316.94;5070360;28;20029;-71
2022/07/12 04:04:21;;;;;;;5.53;3.63;;;;;;;12.85;82.02;102317.72;5068873;28;20040;-73
2022/07/12 04:06:47;;;;;;;4.53;3.60;;;;;;;12.79;83.34;102309.91;5068797;28;20488;-72
2022/07/12 04:09:12;;;;;;;6.03;3.83;;;;;;;12.80;82.09;102305.31;5069083;28;20117;-72
2022/07/12 04:11:38;;;;;;;5.30;3.83;;;;;;;12.81;82.20;102302.47;5066945;28;20037;-72
2022/07/12 04:14:04;;;;;;;5.50;3.72;;;;;;;12.83;82.38;102297.84;5068149;28;20047;-72
2022/07/12 04:16:32;;;;;;;10.57;4.20;;;;;;;12.83;83.71;102302.41;5084673;28;20047;-72
2022/07/12 04:18:57;;;;;;;7.28;4.43;;;;;;;12.82;82.39;102303.34;5070657;28;20051;-72
2022/07/12 04:21:23;;;;;;;9.10;3.80;;;;;;;12.86;81.44;102315.88;5071636;28;20040;-72
2022/07/12 04:23:48;;;;;;;7.35;3.72;;;;;;;12.91;81.52;102314.63;5076645;28;20024;-72
2022/07/12 04:26:14;;;;;;;6.88;3.60;;;;;;;12.95;81.30;102313.47;5080754;28;20079;-72
2022/07/12 04:28:39;;;;;;;4.03;3.60;;;;;;;12.98;82.00;102320.63;5086728;28;20047;-72
2022/07/12 04:31:06;;;;;;;8.55;4.05;;;;;;;13.00;82.27;102315.94;5068940;28;20407;-69
2022/07/12 04:33:31;;;;;;;9.80;3.95;;;;;;;13.04;82.10;102322.97;5069145;28;20028;-72
2022/07/12 04:35:57;;;;;;;7.50;4.10;;;;;;;13.06;82.34;102331.13;5068513;28;20541;-71
2022/07/12 04:38:22;;;;;;;7.50;4.13;;;;;;;13.08;82.82;102332.75;5071779;28;20050;-72
2022/07/12 04:40:47;;;;;;;5.60;4.13;;;;;;;13.11;82.18;102329.84;5083612;28;20047;-72
2022/07/12 04:43:13;;;;;;;6.82;4.78;;;;;;;13.15;83.43;102333.25;5067676;28;20060;-72
2022/07/12 04:45:38;;;;;;;8.35;5.13;;;;;;;13.15;83.26;102325.06;5072325;28;20109;-71
2022/07/12 04:48:04;;;;;;;6.05;4.35;;;;;;;13.18;82.63;102331.25;5066670;28;20518;-72
2022/07/12 04:50:29;;;;;;;5.90;4.65;;;;;;;13.20;83.25;102328.44;5066908;28;20028;-72
2022/07/12 04:52:55;;;;;;;8.20;4.20;;;;;;;13.22;82.44;102327.38;5068423;28;20082;-71
2022/07/12 04:55:20;;;;;;;6.32;3.85;;;;;;;13.27;82.31;102322.53;5066726;28;20115;-72
2022/07/12 04:57:45;;;;;;;8.18;4.82;;;;;;;13.33;82.49;102328.59;5073508;28;20051;-72
2022/07/12 05:00:11;;;;;;;6.55;5.20;;;;;;;13.39;83.14;102325.50;5069807;28;20201;-72
2022/07/12 05:02:36;;;;;;;8.13;5.75;;;;;;;13.46;81.90;102324.16;5069802;28;20754;-72
2022/07/12 05:05:03;;;;;;;8.02;5.68;;;;;;;13.52;82.55;102321.94;5068455;28;20016;-72
2022/07/12 05:07:28;;;;;;;8.45;5.97;;;;;;;13.55;82.89;102328.19;5077273;28;20106;-72
2022/07/12 05:09:53;;;;;;;10.75;6.78;;;;;;;13.64;83.73;102330.34;5067904;28;20036;-71
2022/07/12 05:12:19;;;;;;;13.32;6.47;;;;;;;13.73;83.24;102341.59;5065123;28;20493;-72
2022/07/12 05:14:44;;;;;;;8.35;7.10;;;;;;;13.81;82.84;102341.13;5065414;28;20040;-72
2022/07/12 05:17:10;;;;;;;10.88;6.20;;;;;;;13.89;82.95;102344.25;5065885;28;20059;-72
2022/07/12 05:19:38;;;;;;;8.77;6.43;;;;;;;13.98;83.96;102346.41;5066963;28;20079;-71
2022/07/12 05:22:03;;;;;;;9.02;7.78;;;;;;;14.06;84.82;102345.06;5068197;28;20522;-72
2022/07/12 05:24:29;;;;;;;9.10;7.38;;;;;;;14.13;85.55;102350.06;5067597;28;20055;-72
2022/07/12 05:26:54;;;;;;;14.27;10.60;;;;;;;14.21;85.54;102361.38;5066585;28;20075;-71
2022/07/12 05:29:20;;;;;;;13.40;10.95;;;;;;;14.30;85.86;102354.44;5066081;28;20119;-72
2022/07/12 05:31:45;;;;;;;21.27;15.55;;;;;;;14.40;87.15;102360.22;5072380;28;20035;-71
2022/07/12 05:34:10;;;;;;;18.00;12.80;;;;;;;14.48;85.78;102361.50;5078553;28;20467;-71
2022/07/12 05:36:36;;;;;;;21.60;17.23;;;;;;;14.57;87.62;102372.84;5086462;28;20054;-71
2022/07/12 05:39:01;;;;;;;21.23;17.55;;;;;;;14.66;87.74;102366.78;5078260;28;20043;-71
2022/07/12 05:41:26;;;;;;;21.85;16.52;;;;;;;14.77;87.80;102373.28;5084356;28;20024;-72
2022/07/12 05:43:52;;;;;;;20.15;17.48;;;;;;;14.89;88.28;102377.09;5085464;28;20114;-71
2022/07/12 05:46:17;;;;;;;18.98;14.85;;;;;;;15.00;86.35;102379.13;5064504;28;20067;-71
2022/07/12 05:48:42;;;;;;;19.42;17.35;;;;;;;15.15;87.41;102374.47;5064902;28;20058;-71
2022/07/12 05:53:52;;;;;;;21.15;17.90;;;;;;;15.50;88.06;102385.78;5067037;28;20036;-71
2022/07/12 05:56:17;;;;;;;25.60;22.40;;;;;;;15.66;87.79;102396.63;5066108;28;20060;-71
2022/07/12 05:58:42;;;;;;;27.70;23.88;;;;;;;15.77;87.99;102394.03;5065837;28;20036;-71
2022/07/12 06:01:08;;;;;;;28.08;24.30;;;;;;;15.90;88.05;102396.75;5070011;28;20104;-71
2022/07/12 06:03:33;;;;;;;30.58;25.75;;;;;;;16.03;87.89;102395.78;5069274;28;20066;-71
2022/07/12 06:05:59;;;;;;;30.33;25.48;;;;;;;16.19;87.40;102395.59;5048730;28;20087;-71
2022/07/12 06:08:25;;;;;;;29.52;24.30;;;;;;;16.28;86.58;102397.69;5064728;28;20139;-70
2022/07/12 06:10:50;;;;;;;36.28;25.02;;;;;;;16.43;86.91;102403.06;5064197;28;20415;-71
2022/07/12 06:13:15;;;;;;;33.40;25.67;;;;;;;16.53;86.92;102401.41;5066026;28;20081;-72
2022/07/12 06:15:41;;;;;;;29.60;26.30;;;;;;;16.63;86.66;102399.72;5065022;28;20138;-71
2022/07/12 06:18:06;;;;;;;28.35;24.95;;;;;;;16.78;85.90;102400.50;5064418;28;20036;-71
2022/07/12 06:20:32;;;;;;;26.83;23.75;;;;;;;16.92;86.22;102402.22;5072573;28;20036;-72
2022/07/12 06:22:58;;;;;;;26.02;23.23;;;;;;;17.11;85.35;102408.09;5069918;28;20057;-71
2022/07/12 06:25:23;;;;;;;29.10;25.25;;;;;;;17.29;85.70;102406.72;5080837;28;20123;-72
2022/07/12 06:27:49;;;;;;;28.20;22.73;;;;;;;17.48;83.85;102400.69;5065560;28;20032;-72
2022/07/12 06:30:19;;;;;;;24.90;22.05;;;;;;;17.69;83.10;102408.28;5070437;28;20418;-72
2022/07/12 06:32:46;;;;;;;25.05;22.45;;;;;;;17.82;83.93;102401.75;5067497;28;20615;-72
2022/07/12 06:35:12;;;;;;;26.52;23.73;;;;;;;17.92;84.35;102396.41;5086263;28;20047;-72
2022/07/12 06:37:38;;;;;;;26.25;23.52;;;;;;;18.03;83.22;102395.53;5077690;28;20029;-72
2022/07/12 06:40:04;;;;;;;27.25;24.45;;;;;;;18.16;84.37;102403.72;5067002;28;20368;-72
2022/07/12 06:42:29;;;;;;;26.65;23.88;;;;;;;18.30;82.22;102401.59;5065485;28;20445;-73
2022/07/12 06:44:55;;;;;;;29.52;22.65;;;;;;;18.41;82.74;102399.84;5071422;28;20036;-72
2022/07/12 06:47:22;;;;;;;25.90;22.52;;;;;;;18.52;81.95;102408.16;5084614;28;20031;-73
2022/07/12 06:49:47;;;;;;;25.38;21.95;;;;;;;18.62;83.07;102400.88;5066010;28;20032;-72
2022/07/12 06:52:12;;;;;;;22.92;17.33;;;;;;;18.71;80.35;102407.56;5066386;28;20123;-72
2022/07/12 06:54:38;;;;;;;23.77;19.45;;;;;;;18.79;81.37;102403.16;5068342;28;20043;-72
2022/07/12 06:57:03;;;;;;;22.27;19.90;;;;;;;18.84;81.55;102402.78;5080328;28;20036;-72
2022/07/12 06:59:29;;;;;;;21.10;17.98;;;;;;;18.92;80.76;102413.16;5080725;28;20029;-73
2022/07/12 07:01:57;;;;;;;22.00;16.40;;;;;;;18.99;79.94;102406.16;5079114;28;20044;-72
2022/07/12 07:04:23;;;;;;;22.67;17.08;;;;;;;19.07;79.95;102404.50;5066845;28;20045;-71
2022/07/12 07:06:48;;;;;;;19.65;17.10;;;;;;;19.19;78.93;102401.72;5085181;28;20134;-72
2022/07/12 07:09:14;;;;;;;17.38;15.48;;;;;;;19.31;79.79;102406.19;5069876;28;20503;-73
2022/07/12 07:11:40;;;;;;;19.50;17.38;;;;;;;19.44;79.77;102403.25;5074577;28;20032;-72
2022/07/12 07:14:05;;;;;;;19.70;17.35;;;;;;;19.59;79.31;102410.25;5084256;28;20759;-72
2022/07/12 07:16:31;;;;;;;21.52;15.57;;;;;;;19.73;78.89;102409.97;5066754;28;20055;-72
2022/07/12 07:18:56;;;;;;;17.20;14.43;;;;;;;19.79;77.70;102403.03;5065185;28;20052;-70
2022/07/12 07:21:21;;;;;;;16.00;12.32;;;;;;;19.87;77.17;102406.00;5069248;28;20113;-73
2022/07/12 07:23:47;;;;;;;17.77;12.52;;;;;;;20.00;78.60;102398.38;5069685;28;20025;-73
2022/07/12 07:26:13;;;;;;;17.00;12.05;;;;;;;20.18;76.67;102400.53;5069361;28;20032;-72
2022/07/12 07:30:52;;;;;;;13.32;12.02;;;;;;;20.44;75.03;102393.56;5069097;28;20056;-71
2022/07/12 07:31:23;;;;;;;13.90;12.10;;;;;;;20.81;75.64;102402.19;5069148;28;20447;-71
2022/07/12 07:33:49;;;;;;;13.35;11.23;;;;;;;21.02;74.07;102395.69;5071769;28;20105;-73
2022/07/12 07:36:14;;;;;;;13.80;11.75;;;;;;;21.15;73.95;102399.97;5068242;28;20029;-72
2022/07/12 07:38:40;;;;;;;11.20;8.73;;;;;;;21.22;71.69;102400.28;5050787;28;20040;-72
2022/07/12 07:41:06;;;;;;;10.38;7.20;;;;;;;21.21;68.98;102394.88;5069296;28;20028;-72
2022/07/12 07:43:31;;;;;;;9.95;7.60;;;;;;;21.33;70.49;102402.06;5069387;28;20455;-72
2022/07/12 07:45:57;;;;;;;8.40;7.50;;;;;;;21.42;69.18;102401.22;5081099;28;20030;-71
2022/07/12 07:48:22;;;;;;;10.00;7.95;;;;;;;21.38;67.40;102389.53;5068481;28;20032;-71
2022/07/12 07:50:47;;;;;;;8.63;7.50;;;;;;;21.47;68.74;102395.25;5069369;28;20089;-72
2022/07/12 07:53:14;;;;;;;8.18;7.32;;;;;;;21.55;69.26;102392.63;5085015;28;20208;-72
2022/07/12 07:55:39;;;;;;;7.72;6.63;;;;;;;21.60;68.76;102387.53;5068547;28;20184;-72
2022/07/12 07:58:05;;;;;;;7.57;6.78;;;;;;;21.73;68.99;102387.22;5068409;28;20043;-70
2022/07/12 08:00:30;;;;;;;8.43;7.63;;;;;;;21.89;66.18;102393.91;5069253;28;20087;-72
2022/07/12 08:02:56;;;;;;;9.57;7.90;;;;;;;22.08;67.68;102394.91;5071526;28;20060;-72
2022/07/12 08:05:21;;;;;;;9.15;6.97;;;;;;;22.28;68.02;102393.00;5068872;28;20040;-71
2022/07/12 08:07:46;;;;;;;7.15;6.20;;;;;;;22.46;66.41;102388.41;5069393;28;20460;-72
2022/07/12 08:10:12;;;;;;;9.00;6.90;;;;;;;22.61;64.13;102395.22;5068613;28;20108;-72
2022/07/12 08:12:37;;;;;;;7.63;6.93;;;;;;;22.82;64.95;102391.34;5067698;28;20078;-72
2022/07/12 08:15:03;;;;;;;7.80;6.38;;;;;;;23.07;64.74;102395.31;5067113;28;20154;-72
2022/07/12 08:17:28;;;;;;;9.75;7.93;;;;;;;23.22;62.16;102398.44;5068131;28;20044;-70
2022/07/12 08:19:54;;;;;;;13.80;9.00;;;;;;;23.42;62.52;102394.53;5068833;28;20044;-72
2022/07/12 08:22:19;;;;;;;8.98;7.40;;;;;;;23.65;61.17;102390.28;5068514;28;20044;-71
2022/07/12 08:24:45;;;;;;;9.30;7.57;;;;;;;23.81;60.54;102391.44;5089017;28;20154;-71
2022/07/12 08:27:10;;;;;;;8.60;7.53;;;;;;;23.93;59.88;102392.94;5072405;28;20058;-71
2022/07/12 08:29:35;;;;;;;8.23;5.78;;;;;;;24.35;60.47;102390.31;5068393;28;20505;-71
2022/07/12 08:32:02;;;;;;;7.50;5.60;;;;;;;24.57;58.37;102399.13;5070357;28;20051;-71
2022/07/12 08:34:28;;;;;;;6.78;5.78;;;;;;;24.90;56.39;102401.06;5068875;28;20031;-71
2022/07/12 08:36:53;;;;;;;7.55;6.85;;;;;;;24.77;57.32;102391.44;5068722;28;20040;-71
2022/07/12 08:39:19;;;;;;;9.65;6.20;;;;;;;24.85;57.66;102400.69;5068014;28;20051;-71
2022/07/12 08:41:44;;;;;;;7.45;4.88;;;;;;;25.07;58.21;102403.91;5067785;28;20032;-72
2022/07/12 08:44:09;;;;;;;5.70;5.07;;;;;;;25.16;57.65;102403.81;5065575;28;20185;-71
2022/07/12 08:46:35;;;;;;;6.15;4.72;;;;;;;25.25;55.02;102410.28;5068597;28;20036;-71
2022/07/12 08:49:09;;;;;;;8.98;4.85;;;;;;;25.41;56.43;102406.66;5067528;28;20024;-72
2022/07/12 08:51:34;;;;;;;7.13;4.50;;;;;;;25.60;55.41;102406.38;5068619;28;20036;-71
2022/07/12 08:54:15;;;;;;;7.00;5.22;;;;;;;25.87;55.42;102416.31;5067323;28;20116;-72
2022/07/12 08:56:43;;;;;;;5.20;4.67;;;;;;;26.00;53.38;102420.53;5067385;28;20036;-71
2022/07/12 08:59:13;;;;;;;5.68;4.85;;;;;;;25.99;52.96;102414.06;5066783;28;20799;-71
2022/07/12 09:01:49;;;;;;;5.18;4.38;;;;;;;26.32;55.70;102414.06;5067021;28;20056;-72
2022/07/12 09:04:23;;;;;;;5.25;4.32;;;;;;;26.88;52.43;102413.06;5081016;28;20071;-71
2022/07/12 09:06:48;;;;;;;6.88;4.15;;;;;;;27.29;52.52;102415.69;5068052;28;20078;-72
2022/07/12 09:09:31;;;;;;;6.97;5.13;;;;;;;27.62;51.39;102410.75;5067476;28;20024;-71
2022/07/12 09:11:56;;;;;;;6.25;5.20;;;;;;;27.95;51.10;102410.53;5066964;28;20495;-70
2022/07/12 09:14:22;;;;;;;5.55;3.47;;;;;;;28.19;49.69;102413.13;5066880;28;20037;-72
2022/07/12 09:17:12;;;;;;;7.82;5.07;;;;;;;28.20;49.21;102405.59;5067955;28;20097;-72
2022/07/12 09:19:39;;;;;;;6.32;3.90;;;;;;;28.29;48.07;102415.63;5067180;28;20040;-71
2022/07/12 09:22:15;;;;;;;7.95;4.50;;;;;;;28.54;46.91;102409.81;5068170;28;20032;-71
2022/07/12 09:24:40;;;;;;;4.40;4.00;;;;;;;28.61;48.09;102403.25;5067238;28;20032;-71
2022/07/12 09:27:06;;;;;;;4.63;4.07;;;;;;;29.00;47.56;102404.03;5066294;28;20836;-70
2022/07/12 09:29:33;;;;;;;5.63;3.72;;;;;;;29.11;45.47;102398.81;5067646;28;20405;-72
2022/07/12 09:37:42;;;;;;;4.82;3.35;;;;;;;29.38;46.39;102393.53;5067715;28;20047;-71
2022/07/12 09:40:08;;;;;;;78.88;6.93;;;;;;;29.29;45.92;102395.59;5066926;28;20041;-71
2022/07/12 09:42:34;;;;;;;13.07;4.57;;;;;;;29.31;45.20;102401.88;5066700;28;20043;-71
2022/07/12 09:45:00;;;;;;;6.10;4.00;;;;;;;29.24;45.11;102400.94;5068623;28;20036;-72
2022/07/12 09:47:26;;;;;;;5.32;3.60;;;;;;;29.38;45.72;102402.81;5066554;28;20067;-72
2022/07/12 09:49:52;;;;;;;4.88;4.10;;;;;;;29.32;42.94;102394.31;5066877;28;20145;-70
2022/07/12 09:52:22;;;;;;;3.90;3.50;;;;;;;29.51;44.94;102399.28;5067124;28;20487;-71
2022/07/12 09:54:52;;;;;;;5.50;3.58;;;;;;;29.55;45.55;102395.03;5067377;28;20040;-71
2022/07/12 09:57:22;;;;;;;5.28;3.85;;;;;;;29.52;44.73;102398.22;5065859;28;20071;-72
2022/07/12 09:59:52;;;;;;;6.80;4.68;;;;;;;29.70;42.80;102387.47;5066623;28;20033;-71
2022/07/12 10:02:18;;;;;;;8.38;4.70;;;;;;;29.65;43.63;102391.91;5070512;28;20089;-71
2022/07/12 10:04:46;;;;;;;6.60;3.55;;;;;;;30.09;44.12;102386.06;5066650;28;20114;-71
2022/07/12 10:07:16;;;;;;;4.72;3.15;;;;;;;30.44;42.16;102381.41;5066826;28;20067;-71
2022/07/12 10:09:44;;;;;;;5.72;3.47;;;;;;;30.47;41.81;102383.81;5066943;28;20070;-71
2022/07/12 10:12:10;;;;;;;3.95;3.03;;;;;;;30.72;41.24;102383.34;5065815;28;20178;-71
2022/07/12 10:14:37;;;;;;;3.70;2.50;;;;;;;30.61;42.94;102381.09;5066283;28;20101;-72
2022/07/12 10:17:08;;;;;;;3.60;3.30;;;;;;;30.52;40.40;102368.28;5067528;28;20033;-72
2022/07/12 10:19:35;;;;;;;6.35;3.45;;;;;;;30.63;40.36;102370.50;5066698;28;20062;-70
2022/07/12 10:22:03;;;;;;;7.13;3.63;;;;;;;30.32;39.87;102376.56;5067596;28;20546;-70
2022/07/12 10:24:31;;;;;;;3.95;3.42;;;;;;;30.25;43.22;102365.28;5084600;28;20115;-71
2022/07/12 10:27:20;;;;;;;2.90;2.70;;;;;;;30.42;45.10;102360.22;5073388;28;20067;-71
2022/07/12 10:29:52;;;;;;;3.53;3.20;;;;;;;30.42;43.09;102372.31;5066061;28;20056;-72
2022/07/12 10:32:26;;;;;;;3.85;3.15;;;;;;;30.56;41.56;102372.41;5070348;28;20055;-72
2022/07/12 10:34:59;;;;;;;3.35;2.75;;;;;;;30.66;43.86;102372.91;5066255;28;20040;-71
2022/07/12 10:37:25;;;;;;;3.70;2.95;;;;;;;31.02;41.01;102369.88;5066727;28;20139;-71
2022/07/12 10:40:10;;;;;;;5.97;3.00;;;;;;;31.17;42.07;102361.28;5065445;28;20132;-71
2022/07/12 10:42:36;;;;;;;4.60;2.92;;;;;;;31.35;41.35;102377.59;5065654;28;20483;-71
2022/07/12 10:45:13;;;;;;;7.03;3.20;;;;;;;31.27;39.97;102374.94;5066273;28;20043;-71
2022/07/12 10:47:54;;;;;;;5.90;2.72;;;;;;;31.35;40.68;102372.84;5065915;28;20480;-71
2022/07/12 10:50:48;;;;;;;7.15;2.17;;;;;;;31.56;41.93;102371.78;5066632;28;20549;-71
2022/07/12 10:53:19;;;;;;;3.28;2.40;;;;;;;31.70;40.20;102369.84;5066232;28;20040;-72
2022/07/12 10:56:03;;;;;;;3.70;2.00;;;;;;;31.75;40.68;102370.06;5084004;28;20085;-70
2022/07/12 10:58:37;;;;;;;4.45;2.10;;;;;;;31.67;39.33;102374.00;5088718;28;20038;-70
2022/07/12 11:01:05;;;;;;;3.53;2.72;;;;;;;31.72;39.09;102381.78;5075440;28;20746;-71
2022/07/12 11:04:03;;;;;;;3.45;2.83;;;;;;;31.82;42.08;102378.56;5074467;28;20115;-69
2022/07/12 11:06:29;;;;;;;4.90;3.03;;;;;;;31.99;39.89;102377.09;5085566;28;20055;-71
2022/07/12 11:09:06;;;;;;;6.22;3.67;;;;;;;31.82;40.76;102379.44;5070444;28;20032;-71
2022/07/12 11:11:34;;;;;;;9.85;4.60;;;;;;;31.55;38.80;102378.50;5070250;28;20062;-70
2022/07/12 11:14:01;;;;;;;6.38;4.30;;;;;;;31.19;40.43;102371.22;5070065;28;20391;-70
2022/07/12 11:16:28;;;;;;;4.60;4.18;;;;;;;31.22;39.88;102369.94;5070044;28;20036;-70
2022/07/12 11:18:55;;;;;;;5.22;2.92;;;;;;;31.18;40.27;102372.31;5067716;28;20115;-71
2022/07/12 11:21:22;;;;;;;3.35;3.05;;;;;;;31.29;40.37;102373.69;5070284;28;20041;-71
2022/07/12 11:23:48;;;;;;;3.55;2.90;;;;;;;31.52;38.43;102373.28;5069846;28;20586;-71
2022/07/12 11:26:14;;;;;;;4.57;3.65;;;;;;;31.47;37.45;102371.13;5069396;28;20369;-71
2022/07/12 11:28:41;;;;;;;3.22;2.88;;;;;;;31.69;38.09;102360.56;5069282;28;20062;-71
2022/07/12 11:31:13;;;;;;;3.53;3.22;;;;;;;31.75;37.94;102358.81;5069497;28;20064;-70